Time;durP1;ratioP1;P1;durP2;ratioP2;P2;SDS_P1;SDS_P2;PMS_P1;PMS_P2;Temp;Humidity;BMP_temperature;BMP_pressure;BME280_temperature;BME280_humidity;BME280_pressure;Samples;Min_cycle;Max_cycle;Signal;HPM_P1;HPM_P2
2021/12/20 00:02:05;;;;;;;20.83;10.40;;;;;;;;;;4999079;28;20038;-77
2021/12/20 00:04:30;;;;;;;25.55;10.90;;;;;;;;;;4997826;28;20037;-77
2021/12/20 00:06:55;;;;;;;23.02;10.20;;;;;;;;;;5014325;28;20435;-77
2021/12/20 00:09:21;;;;;;;25.15;11.65;;;;;;;;;;5013865;28;20056;-77
2021/12/20 00:11:46;;;;;;;22.15;10.77;;;;;;;;;;5014898;28;20049;-76
2021/12/20 00:14:11;;;;;;;25.73;10.52;;;;;;;;;;5000039;28;20061;-77
2021/12/20 00:16:37;;;;;;;20.48;9.75;;;;;;;;;;5014361;28;20065;-77
2021/12/20 00:19:02;;;;;;;19.73;10.13;;;;;;;;;;4982914;28;20021;-77
2021/12/20 00:21:27;;;;;;;21.60;11.00;;;;;;;;;;5017244;28;20037;-77
2021/12/20 00:23:53;;;;;;;23.63;10.70;;;;;;;;;;5016448;28;20040;-77
2021/12/20 00:26:18;;;;;;;19.88;10.23;;;;;;;;;;5016428;28;20101;-77
2021/12/20 00:28:43;;;;;;;21.60;9.93;;;;;;;;;;4999251;28;20034;-77
2021/12/20 00:31:09;;;;;;;22.98;10.30;;;;;;;;;;5031420;28;20037;-77
2021/12/20 00:33:34;;;;;;;18.67;9.45;;;;;;;;;;5016226;28;20057;-77
2021/12/20 00:36:04;;;;;;;23.90;10.18;;;;;;;;;;5030874;28;20052;-77
2021/12/20 00:41:13;;;;;;;21.98;10.35;;;;;;;;;;5029536;28;20167;-77
2021/12/20 00:43:38;;;;;;;19.58;9.95;;;;;;;;;;5016005;28;20113;-77
2021/12/20 00:46:03;;;;;;;17.00;9.65;;;;;;;;;;5014682;28;20169;-77
2021/12/20 00:48:29;;;;;;;18.02;9.07;;;;;;;;;;5031781;28;20124;-77
2021/12/20 00:50:54;;;;;;;16.50;9.55;;;;;;;;;;5031859;28;20115;-77
2021/12/20 00:53:19;;;;;;;21.17;10.18;;;;;;;;;;5011108;28;20034;-77
2021/12/20 00:55:45;;;;;;;20.25;9.52;;;;;;;;;;4997887;28;20026;-77
2021/12/20 00:58:10;;;;;;;17.88;9.52;;;;;;;;;;5015699;28;20026;-77
2021/12/20 01:00:46;;;;;;;17.63;9.73;;;;;;;;;;5015740;28;20026;-77
2021/12/20 01:03:12;;;;;;;16.40;9.13;;;;;;;;;;5015551;28;20029;-77
2021/12/20 01:05:40;;;;;;;20.92;10.30;;;;;;;;;;5032239;28;20033;-77
2021/12/20 01:08:07;;;;;;;18.80;10.02;;;;;;;;;;4999349;28;20071;-77
2021/12/20 01:10:33;;;;;;;20.38;10.35;;;;;;;;;;4999171;28;20101;-77
2021/12/20 01:12:59;;;;;;;19.50;9.90;;;;;;;;;;5014171;28;20766;-77
2021/12/20 01:15:28;;;;;;;21.13;11.05;;;;;;;;;;5029967;28;20028;-77
2021/12/20 01:17:53;;;;;;;19.80;10.35;;;;;;;;;;4997524;28;20026;-77
2021/12/20 01:20:19;;;;;;;20.90;10.75;;;;;;;;;;4999991;28;20531;-77
2021/12/20 01:22:45;;;;;;;24.23;11.35;;;;;;;;;;4998348;28;20037;-77
2021/12/20 01:25:11;;;;;;;19.45;10.18;;;;;;;;;;4997549;28;20018;-77
2021/12/20 01:27:36;;;;;;;27.73;12.35;;;;;;;;;;4998269;28;20030;-77
2021/12/20 01:30:03;;;;;;;25.48;11.70;;;;;;;;;;5014580;28;20064;-77
2021/12/20 01:32:28;;;;;;;21.67;11.95;;;;;;;;;;4998286;28;20040;-77
2021/12/20 01:34:53;;;;;;;25.00;12.00;;;;;;;;;;5013720;28;20560;-77
2021/12/20 01:37:19;;;;;;;26.17;12.15;;;;;;;;;;5012986;28;20541;-77
2021/12/20 01:39:44;;;;;;;26.98;12.35;;;;;;;;;;5015777;28;20539;-77
2021/12/20 01:42:09;;;;;;;26.67;12.40;;;;;;;;;;5014232;28;20113;-77
2021/12/20 01:44:36;;;;;;;23.00;12.38;;;;;;;;;;5013819;28;20034;-77
2021/12/20 01:47:03;;;;;;;27.92;13.35;;;;;;;;;;4997299;28;20515;-77
2021/12/20 01:49:32;;;;;;;27.15;13.18;;;;;;;;;;4997405;28;20080;-77
2021/12/20 01:54:22;;;;;;;26.80;12.88;;;;;;;;;;5013687;28;20037;-77
2021/12/20 01:56:48;;;;;;;26.23;13.48;;;;;;;;;;5012974;28;20060;-77
2021/12/20 01:59:13;;;;;;;30.02;12.60;;;;;;;;;;5015216;28;20022;-77
2021/12/20 02:01:38;;;;;;;28.08;13.20;;;;;;;;;;4997066;28;20052;-77
2021/12/20 02:04:07;;;;;;;28.00;13.27;;;;;;;;;;5012925;28;20036;-77
2021/12/20 02:06:38;;;;;;;31.98;14.75;;;;;;;;;;5010434;28;20025;-77
2021/12/20 02:09:08;;;;;;;32.78;14.52;;;;;;;;;;5013313;28;20122;-77
2021/12/20 02:11:34;;;;;;;29.05;13.93;;;;;;;;;;5015906;28;20074;-77
2021/12/20 02:13:59;;;;;;;33.30;14.93;;;;;;;;;;4997808;28;20029;-77
2021/12/20 02:16:25;;;;;;;30.52;14.20;;;;;;;;;;4996076;28;20033;-77
2021/12/20 02:18:50;;;;;;;25.95;13.23;;;;;;;;;;5015495;28;20029;-77
2021/12/20 02:21:15;;;;;;;32.78;14.35;;;;;;;;;;5013788;28;20109;-77
2021/12/20 02:23:41;;;;;;;27.75;13.07;;;;;;;;;;5013892;28;20059;-77
2021/12/20 02:26:06;;;;;;;27.65;14.40;;;;;;;;;;5014165;28;20053;-77
2021/12/20 02:28:38;;;;;;;33.20;14.60;;;;;;;;;;4981855;28;20030;-77
2021/12/20 02:38:57;;;;;;;28.73;13.57;;;;;;;;;;5010521;28;20033;-77
2021/12/20 02:41:26;;;;;;;30.98;14.32;;;;;;;;;;5014946;28;20515;-77
2021/12/20 02:43:55;;;;;;;33.45;14.18;;;;;;;;;;5012193;28;20136;-77
2021/12/20 02:49:09;;;;;;;30.38;14.65;;;;;;;;;;4997466;28;20060;-77
2021/12/20 02:51:35;;;;;;;29.15;14.15;;;;;;;;;;4986137;28;20030;-77
2021/12/20 02:54:02;;;;;;;31.98;13.57;;;;;;;;;;5013127;28;20055;-77
2021/12/20 02:56:27;;;;;;;33.50;14.60;;;;;;;;;;5014160;28;20069;-77
2021/12/20 02:58:52;;;;;;;28.90;14.15;;;;;;;;;;5014467;28;20061;-77
2021/12/20 03:01:18;;;;;;;35.88;16.30;;;;;;;;;;4998027;28;20038;-76
2021/12/20 03:03:43;;;;;;;31.85;14.63;;;;;;;;;;5011811;28;20037;-77
2021/12/20 03:06:10;;;;;;;28.65;13.80;;;;;;;;;;4999124;28;20018;-76
2021/12/20 03:08:37;;;;;;;30.23;14.48;;;;;;;;;;5011839;28;20033;-76
2021/12/20 03:11:02;;;;;;;30.35;13.48;;;;;;;;;;5009829;28;20496;-77
2021/12/20 03:13:28;;;;;;;28.08;14.35;;;;;;;;;;5013724;28;20052;-76
2021/12/20 03:15:53;;;;;;;36.10;14.13;;;;;;;;;;5013504;28;20022;-76
2021/12/20 03:18:18;;;;;;;32.45;13.75;;;;;;;;;;5012253;28;20499;-76
2021/12/20 03:20:43;;;;;;;31.02;13.23;;;;;;;;;;5014704;28;21185;-77
2021/12/20 03:23:09;;;;;;;29.10;13.98;;;;;;;;;;5012945;28;20052;-77
2021/12/20 03:25:34;;;;;;;26.38;12.45;;;;;;;;;;5011720;28;20076;-77
2021/12/20 03:27:59;;;;;;;31.35;14.20;;;;;;;;;;5014106;28;20030;-76
2021/12/20 03:30:26;;;;;;;28.63;13.63;;;;;;;;;;5012496;28;20029;-77
2021/12/20 03:32:51;;;;;;;30.05;13.57;;;;;;;;;;5012833;28;20033;-77
2021/12/20 03:35:16;;;;;;;29.05;13.18;;;;;;;;;;4997254;28;20029;-77
2021/12/20 03:37:42;;;;;;;26.10;12.88;;;;;;;;;;4994125;28;20065;-77
2021/12/20 03:40:08;;;;;;;27.67;12.98;;;;;;;;;;5011083;28;20017;-77
2021/12/20 03:42:34;;;;;;;27.90;13.15;;;;;;;;;;5013985;28;20042;-76
2021/12/20 03:45:00;;;;;;;27.40;12.57;;;;;;;;;;5011935;28;20033;-76
2021/12/20 03:47:25;;;;;;;27.55;12.65;;;;;;;;;;5012920;28;20029;-77
2021/12/20 03:49:50;;;;;;;30.45;12.80;;;;;;;;;;5013950;28;20029;-76
2021/12/20 03:52:15;;;;;;;31.88;14.18;;;;;;;;;;5014212;28;20035;-77
2021/12/20 03:54:41;;;;;;;27.75;13.63;;;;;;;;;;5014093;28;20044;-76
2021/12/20 03:57:06;;;;;;;32.53;13.93;;;;;;;;;;4980970;28;20034;-77
2021/12/20 03:59:32;;;;;;;31.67;13.95;;;;;;;;;;5019103;28;20036;-77
2021/12/20 04:01:57;;;;;;;32.70;14.10;;;;;;;;;;5014848;28;20042;-77
2021/12/20 04:04:23;;;;;;;31.00;13.80;;;;;;;;;;4999974;28;20394;-77
2021/12/20 04:06:48;;;;;;;33.40;12.93;;;;;;;;;;4999403;28;20032;-77
2021/12/20 04:09:13;;;;;;;30.83;14.00;;;;;;;;;;5014182;28;20518;-77
2021/12/20 04:11:39;;;;;;;29.65;13.85;;;;;;;;;;5016749;28;20503;-77
2021/12/20 04:14:04;;;;;;;29.95;12.73;;;;;;;;;;5014236;28;20088;-77
2021/12/20 04:16:30;;;;;;;29.85;13.38;;;;;;;;;;5014593;28;20465;-76
2021/12/20 04:18:55;;;;;;;30.90;14.05;;;;;;;;;;5000348;28;20080;-77
2021/12/20 04:21:21;;;;;;;28.98;12.95;;;;;;;;;;5015739;28;20041;-77
2021/12/20 04:23:46;;;;;;;29.20;13.65;;;;;;;;;;4999589;28;20100;-77
2021/12/20 04:26:12;;;;;;;26.08;13.05;;;;;;;;;;5015018;28;20025;-76
2021/12/20 04:28:37;;;;;;;26.70;12.43;;;;;;;;;;5016839;28;20026;-77
2021/12/20 04:31:02;;;;;;;29.75;13.73;;;;;;;;;;5014668;28;20037;-77
2021/12/20 04:33:28;;;;;;;28.70;13.27;;;;;;;;;;5014149;28;20116;-77
2021/12/20 04:35:53;;;;;;;27.27;12.52;;;;;;;;;;4998903;28;20072;-75
2021/12/20 04:38:19;;;;;;;24.63;11.70;;;;;;;;;;5014547;28;20053;-76
2021/12/20 04:40:44;;;;;;;22.80;11.82;;;;;;;;;;5015503;28;20085;-76
2021/12/20 04:43:10;;;;;;;24.60;11.88;;;;;;;;;;5016663;28;20028;-76
2021/12/20 04:45:35;;;;;;;22.02;11.43;;;;;;;;;;5015813;28;20044;-76
2021/12/20 04:48:01;;;;;;;26.60;12.55;;;;;;;;;;5012364;28;20050;-76
2021/12/20 04:50:26;;;;;;;27.88;11.90;;;;;;;;;;5014652;28;20063;-76
2021/12/20 04:52:54;;;;;;;19.95;11.10;;;;;;;;;;5016253;28;21527;-76
2021/12/20 04:55:19;;;;;;;25.27;12.02;;;;;;;;;;5013460;28;20102;-75
2021/12/20 04:57:44;;;;;;;23.70;11.38;;;;;;;;;;5013141;28;20113;-76
2021/12/20 05:00:12;;;;;;;25.17;11.25;;;;;;;;;;5015007;28;20018;-76
2021/12/20 05:02:38;;;;;;;18.88;10.27;;;;;;;;;;5013380;28;20118;-75
2021/12/20 05:05:03;;;;;;;20.27;10.65;;;;;;;;;;5014397;28;20109;-75
2021/12/20 05:07:29;;;;;;;18.73;9.75;;;;;;;;;;5014598;28;20030;-75
2021/12/20 05:10:01;;;;;;;21.35;10.32;;;;;;;;;;5011887;28;20059;-75
2021/12/20 05:12:26;;;;;;;21.30;11.43;;;;;;;;;;5013982;28;20044;-75
2021/12/20 05:14:51;;;;;;;27.60;11.30;;;;;;;;;;5016977;28;20030;-76
2021/12/20 05:17:17;;;;;;;22.58;11.27;;;;;;;;;;5014514;28;20439;-76
2021/12/20 05:19:42;;;;;;;20.83;9.77;;;;;;;;;;5011886;28;20566;-76
2021/12/20 05:22:08;;;;;;;22.85;12.07;;;;;;;;;;5028398;28;20435;-76
2021/12/20 05:24:33;;;;;;;22.95;11.55;;;;;;;;;;5015684;28;20113;-75
2021/12/20 05:26:59;;;;;;;24.58;11.73;;;;;;;;;;5012824;28;20097;-76
2021/12/20 05:29:25;;;;;;;23.85;11.48;;;;;;;;;;5016238;28;20068;-76
2021/12/20 05:31:51;;;;;;;19.45;10.68;;;;;;;;;;4997099;28;20039;-76
2021/12/20 05:34:17;;;;;;;21.02;10.90;;;;;;;;;;5012774;28;20083;-76
2021/12/20 05:36:42;;;;;;;22.88;11.88;;;;;;;;;;4997476;28;20022;-75
2021/12/20 05:39:07;;;;;;;25.23;11.77;;;;;;;;;;5014653;28;20366;-75
2021/12/20 05:41:33;;;;;;;23.38;11.48;;;;;;;;;;5016463;28;20018;-75
2021/12/20 05:43:58;;;;;;;27.00;11.73;;;;;;;;;;5014621;28;20027;-76
2021/12/20 05:46:23;;;;;;;24.85;11.70;;;;;;;;;;5015354;28;20029;-75
2021/12/20 05:48:49;;;;;;;22.92;11.23;;;;;;;;;;5016274;28;20113;-76
2021/12/20 05:51:14;;;;;;;22.45;11.15;;;;;;;;;;5017036;28;20100;-75
2021/12/20 05:53:39;;;;;;;23.65;10.85;;;;;;;;;;5016179;28;20132;-76
2021/12/20 05:56:05;;;;;;;21.63;10.93;;;;;;;;;;5014231;28;20026;-75
2021/12/20 05:58:30;;;;;;;22.77;11.23;;;;;;;;;;5013606;28;20033;-76
2021/12/20 06:00:55;;;;;;;24.30;11.82;;;;;;;;;;5012291;28;20085;-75
2021/12/20 06:03:21;;;;;;;22.73;11.38;;;;;;;;;;4997698;28;20075;-76
2021/12/20 06:05:46;;;;;;;23.00;11.52;;;;;;;;;;5014635;28;20041;-76
2021/12/20 06:08:11;;;;;;;24.20;12.02;;;;;;;;;;4998706;28;20024;-76
2021/12/20 06:10:37;;;;;;;23.65;11.32;;;;;;;;;;5015008;28;20140;-76
2021/12/20 06:13:03;;;;;;;24.52;11.00;;;;;;;;;;5013274;28;20104;-75
2021/12/20 06:15:29;;;;;;;22.40;11.45;;;;;;;;;;4999654;28;20045;-75
2021/12/20 06:17:54;;;;;;;23.25;11.30;;;;;;;;;;5013123;28;20034;-75
2021/12/20 06:20:19;;;;;;;23.65;11.35;;;;;;;;;;5014387;28;20022;-76
2021/12/20 06:22:45;;;;;;;23.27;11.10;;;;;;;;;;5014499;28;20032;-75
2021/12/20 06:25:10;;;;;;;22.63;11.85;;;;;;;;;;5012701;28;20104;-76
2021/12/20 06:27:36;;;;;;;21.10;10.90;;;;;;;;;;4996137;28;20025;-76
2021/12/20 06:30:03;;;;;;;23.88;11.88;;;;;;;;;;5013776;28;20021;-76
2021/12/20 06:32:28;;;;;;;24.23;12.10;;;;;;;;;;5015544;28;20551;-76
2021/12/20 06:34:54;;;;;;;25.08;10.55;;;;;;;;;;5013610;28;20037;-76
2021/12/20 06:37:19;;;;;;;26.42;12.45;;;;;;;;;;5012468;28;20018;-76
2021/12/20 06:39:44;;;;;;;26.17;12.63;;;;;;;;;;5013671;28;20637;-76
2021/12/20 06:42:10;;;;;;;24.30;12.02;;;;;;;;;;5011221;28;20031;-76
2021/12/20 06:44:35;;;;;;;26.38;12.35;;;;;;;;;;5013490;28;20040;-76
2021/12/20 06:47:00;;;;;;;22.98;10.82;;;;;;;;;;5013383;28;20021;-76
2021/12/20 06:49:26;;;;;;;23.75;11.02;;;;;;;;;;5015584;28;20033;-76
2021/12/20 06:51:55;;;;;;;28.55;13.52;;;;;;;;;;5014847;28;20045;-75
2021/12/20 06:54:20;;;;;;;27.88;13.13;;;;;;;;;;5012903;28;20021;-76
2021/12/20 06:56:46;;;;;;;28.23;13.32;;;;;;;;;;5028365;28;20052;-75
2021/12/20 06:59:11;;;;;;;24.80;12.30;;;;;;;;;;5013790;28;20106;-76
2021/12/20 07:01:37;;;;;;;28.20;13.05;;;;;;;;;;5015669;28;20084;-76
2021/12/20 07:04:02;;;;;;;28.17;13.60;;;;;;;;;;5012834;28;20048;-76
2021/12/20 07:06:28;;;;;;;26.05;12.07;;;;;;;;;;5010877;28;20044;-76
2021/12/20 07:08:54;;;;;;;26.98;13.05;;;;;;;;;;5011190;28;20037;-75
2021/12/20 07:11:19;;;;;;;26.25;12.23;;;;;;;;;;4996756;28;20030;-76
2021/12/20 07:13:44;;;;;;;26.10;12.52;;;;;;;;;;5012326;28;20030;-76
2021/12/20 07:16:10;;;;;;;26.13;11.90;;;;;;;;;;5013982;28;20085;-76
2021/12/20 07:18:35;;;;;;;24.08;11.73;;;;;;;;;;5012190;28;20017;-76
2021/12/20 07:21:01;;;;;;;23.70;11.55;;;;;;;;;;4997326;28;20021;-76
2021/12/20 07:23:26;;;;;;;25.58;12.07;;;;;;;;;;5015472;28;20584;-76
2021/12/20 07:25:51;;;;;;;25.67;12.63;;;;;;;;;;5015071;28;20400;-76
2021/12/20 07:28:16;;;;;;;26.45;13.02;;;;;;;;;;4996624;28;20407;-76
2021/12/20 07:30:45;;;;;;;29.42;13.32;;;;;;;;;;5013341;28;20029;-75
2021/12/20 07:33:10;;;;;;;20.33;11.02;;;;;;;;;;5018351;28;20049;-76
2021/12/20 07:35:35;;;;;;;22.98;11.40;;;;;;;;;;5016589;28;20076;-75
2021/12/20 07:38:03;;;;;;;26.13;12.45;;;;;;;;;;5016866;28;20033;-76
2021/12/20 07:40:28;;;;;;;23.55;11.50;;;;;;;;;;5016235;28;20561;-76
2021/12/20 07:42:53;;;;;;;25.85;12.45;;;;;;;;;;5014245;28;20022;-75
2021/12/20 07:45:19;;;;;;;26.40;12.55;;;;;;;;;;5017125;28;20083;-76
2021/12/20 07:47:45;;;;;;;22.48;12.27;;;;;;;;;;4999488;28;20025;-75
2021/12/20 07:50:10;;;;;;;23.77;11.63;;;;;;;;;;4999099;28;20030;-76
2021/12/20 07:52:36;;;;;;;23.98;12.63;;;;;;;;;;5015672;28;20034;-76
2021/12/20 07:55:01;;;;;;;25.90;12.48;;;;;;;;;;5016861;28;20037;-76
2021/12/20 07:57:26;;;;;;;23.08;12.07;;;;;;;;;;5014247;28;20032;-76
2021/12/20 07:59:52;;;;;;;23.05;12.18;;;;;;;;;;5016325;28;20024;-75
2021/12/20 08:02:17;;;;;;;26.13;12.10;;;;;;;;;;5016064;28;20491;-75
2021/12/20 08:04:48;;;;;;;24.17;12.13;;;;;;;;;;5017995;28;20128;-76
2021/12/20 08:07:13;;;;;;;22.08;11.60;;;;;;;;;;5015877;28;20072;-76
2021/12/20 08:09:39;;;;;;;27.08;12.77;;;;;;;;;;5015352;28;20062;-75
2021/12/20 08:12:05;;;;;;;24.75;13.25;;;;;;;;;;5014669;28;20026;-75
2021/12/20 08:14:30;;;;;;;22.80;11.90;;;;;;;;;;5016118;28;20030;-76
2021/12/20 08:16:55;;;;;;;23.02;11.75;;;;;;;;;;5014621;28;20022;-76
2021/12/20 08:19:20;;;;;;;23.83;11.40;;;;;;;;;;5016405;28;20024;-76
2021/12/20 08:21:46;;;;;;;24.48;12.05;;;;;;;;;;5015697;28;20029;-76
2021/12/20 08:24:11;;;;;;;26.02;12.82;;;;;;;;;;5014443;28;20022;-76
2021/12/20 08:26:36;;;;;;;23.92;12.07;;;;;;;;;;5014089;28;20023;-76
2021/12/20 08:29:02;;;;;;;25.52;11.98;;;;;;;;;;5015689;28;20045;-76
2021/12/20 08:31:27;;;;;;;26.40;12.07;;;;;;;;;;5014100;28;20069;-76
2021/12/20 08:33:53;;;;;;;25.05;12.85;;;;;;;;;;5013302;28;20030;-76
2021/12/20 08:36:18;;;;;;;24.95;12.00;;;;;;;;;;5017600;28;20102;-76
2021/12/20 08:38:44;;;;;;;22.88;11.25;;;;;;;;;;5011412;28;20728;-76
2021/12/20 08:41:11;;;;;;;26.13;13.07;;;;;;;;;;5014387;28;20021;-76
2021/12/20 08:43:37;;;;;;;20.35;11.55;;;;;;;;;;5014580;28;20026;-76
2021/12/20 08:46:02;;;;;;;25.30;11.98;;;;;;;;;;5007188;23;20047;-68
2021/12/20 08:48:29;;;;;;;24.70;12.23;;;;;;;;;;5000305;28;20030;-68
2021/12/20 08:50:55;;;;;;;24.23;12.43;;;;;;;;;;4999207;28;20030;-69
2021/12/20 08:53:20;;;;;;;22.90;11.65;;;;;;;;;;4998525;28;20022;-69
2021/12/20 08:55:45;;;;;;;21.85;11.63;;;;;;;;;;4996196;28;20022;-68
2021/12/20 08:58:12;;;;;;;23.05;12.48;;;;;;;;;;4992851;28;20053;-68
2021/12/20 09:00:38;;;;;;;26.67;12.82;;;;;;;;;;4992969;28;20035;-68
2021/12/20 09:03:03;;;;;;;23.85;11.23;;;;;;;;;;4993840;28;20034;-68
2021/12/20 09:05:29;;;;;;;21.80;11.35;;;;;;;;;;4993990;28;20108;-68
2021/12/20 09:07:57;;;;;;;25.42;12.15;;;;;;;;;;4992648;28;20030;-68
2021/12/20 09:10:22;;;;;;;25.80;12.63;;;;;;;;;;4992320;28;20041;-68
2021/12/20 09:12:47;;;;;;;23.17;11.75;;;;;;;;;;4991817;28;20110;-68
2021/12/20 09:15:15;;;;;;;22.27;11.80;;;;;;;;;;4995241;28;20128;-68
2021/12/20 09:17:44;;;;;;;22.08;12.63;;;;;;;;;;4996842;28;20034;-68
2021/12/20 09:20:10;;;;;;;24.27;11.93;;;;;;;;;;4995087;28;20026;-68
2021/12/20 09:22:48;;;;;;;21.00;11.40;;;;;;;;;;4994298;28;20052;-68
2021/12/20 09:25:13;;;;;;;25.15;11.25;;;;;;;;;;4995988;28;20116;-68
2021/12/20 09:27:39;;;;;;;24.10;12.05;;;;;;;;;;4993570;28;20458;-68
2021/12/20 09:30:04;;;;;;;19.38;11.00;;;;;;;;;;4992820;28;20607;-68
2021/12/20 09:32:30;;;;;;;20.98;11.57;;;;;;;;;;4993317;28;20115;-68
2021/12/20 09:34:55;;;;;;;20.92;11.05;;;;;;;;;;4994993;28;20396;-68
2021/12/20 09:37:20;;;;;;;22.48;11.85;;;;;;;;;;4995202;28;20536;-68
2021/12/20 09:39:50;;;;;;;19.30;11.20;;;;;;;;;;4994669;28;20041;-68
2021/12/20 09:42:15;;;;;;;22.25;11.68;;;;;;;;;;4995242;28;20057;-68
2021/12/20 09:44:43;;;;;;;21.38;11.10;;;;;;;;;;4995044;28;20119;-68
2021/12/20 09:47:08;;;;;;;21.08;10.63;;;;;;;;;;4995414;28;20018;-68
2021/12/20 09:49:33;;;;;;;20.27;10.52;;;;;;;;;;4996911;28;20042;-68
2021/12/20 09:51:59;;;;;;;18.88;10.73;;;;;;;;;;4998457;28;20120;-68
2021/12/20 09:54:26;;;;;;;19.42;10.25;;;;;;;;;;4996911;28;20041;-68
2021/12/20 09:56:53;;;;;;;16.50;9.95;;;;;;;;;;4998226;28;20042;-68
2021/12/20 09:59:18;;;;;;;21.77;11.65;;;;;;;;;;4996241;28;20034;-68
2021/12/20 10:01:44;;;;;;;21.67;11.38;;;;;;;;;;4995598;28;20460;-68
2021/12/20 10:04:10;;;;;;;22.48;11.35;;;;;;;;;;4996277;28;20018;-68
2021/12/20 10:06:35;;;;;;;19.45;11.10;;;;;;;;;;4995845;28;20084;-68
2021/12/20 10:09:10;;;;;;;20.77;11.00;;;;;;;;;;4994074;28;20590;-68
2021/12/20 10:11:37;;;;;;;18.13;10.40;;;;;;;;;;4996271;28;20416;-68
2021/12/20 10:14:13;;;;;;;20.05;10.10;;;;;;;;;;4996036;28;20033;-68
2021/12/20 10:16:39;;;;;;;15.07;9.63;;;;;;;;;;4996560;28;20079;-68
2021/12/20 10:19:09;;;;;;;22.38;11.32;;;;;;;;;;4997284;28;20065;-68
2021/12/20 10:21:39;;;;;;;18.13;10.20;;;;;;;;;;4996806;28;20036;-68
2021/12/20 10:24:04;;;;;;;19.20;10.48;;;;;;;;;;4997009;28;20026;-68
2021/12/20 10:26:41;;;;;;;20.27;10.52;;;;;;;;;;4996172;28;20030;-68
2021/12/20 10:29:19;;;;;;;13.05;8.10;;;;;;;;;;4995167;28;20026;-68
2021/12/20 10:31:45;;;;;;;15.90;8.95;;;;;;;;;;4995961;28;20240;-68
2021/12/20 10:34:11;;;;;;;14.75;9.20;;;;;;;;;;4997024;28;20120;-68
2021/12/20 10:36:36;;;;;;;12.50;7.75;;;;;;;;;;4997204;28;20412;-68
2021/12/20 10:39:04;;;;;;;12.90;7.80;;;;;;;;;;4993588;28;20046;-68
2021/12/20 10:41:35;;;;;;;11.27;7.32;;;;;;;;;;4996484;28;20444;-68
2021/12/20 10:44:14;;;;;;;12.40;7.45;;;;;;;;;;4996079;28;20050;-68
2021/12/20 10:46:48;;;;;;;12.82;8.02;;;;;;;;;;4992852;28;20448;-68
2021/12/20 10:49:18;;;;;;;12.93;8.05;;;;;;;;;;4991891;28;20034;-68
2021/12/20 10:51:44;;;;;;;14.85;7.75;;;;;;;;;;4992050;28;20125;-68
2021/12/20 10:54:13;;;;;;;13.20;8.13;;;;;;;;;;4991960;28;20443;-68
2021/12/20 10:56:55;;;;;;;17.20;8.82;;;;;;;;;;4993621;28;20023;-68
2021/12/20 10:59:30;;;;;;;13.35;7.93;;;;;;;;;;4995941;28;20073;-68
2021/12/20 11:04:56;;;;;;;11.50;8.23;;;;;;;;;;4995175;28;20173;-68
2021/12/20 11:09:50;;;;;;;15.35;8.65;;;;;;;;;;4997680;28;20451;-68
2021/12/20 11:12:20;;;;;;;16.67;9.15;;;;;;;;;;4994349;28;20026;-68
2021/12/20 11:14:48;;;;;;;16.98;9.52;;;;;;;;;;4998306;28;20030;-68
2021/12/20 11:17:15;;;;;;;17.58;9.77;;;;;;;;;;5001204;28;20018;-68
2021/12/20 11:19:50;;;;;;;15.02;8.73;;;;;;;;;;5000579;28;20519;-68
2021/12/20 11:22:20;;;;;;;12.43;7.65;;;;;;;;;;4998479;28;20033;-68
2021/12/20 11:25:03;;;;;;;15.60;8.98;;;;;;;;;;4999013;28;20037;-68
2021/12/20 11:27:33;;;;;;;11.07;6.40;;;;;;;;;;4999186;28;20060;-68
2021/12/20 11:30:06;;;;;;;9.93;6.10;;;;;;;;;;5000377;28;20559;-68
2021/12/20 11:32:31;;;;;;;10.90;6.03;;;;;;;;;;4999786;28;20500;-68
2021/12/20 11:34:56;;;;;;;9.68;5.80;;;;;;;;;;5000592;28;20029;-69
2021/12/20 11:37:27;;;;;;;11.07;6.00;;;;;;;;;;4999125;28;20026;-68
2021/12/20 11:39:53;;;;;;;10.77;6.07;;;;;;;;;;4997917;28;20084;-68
2021/12/20 11:42:18;;;;;;;11.43;5.95;;;;;;;;;;4999166;28;20034;-68
2021/12/20 11:44:45;;;;;;;11.57;6.35;;;;;;;;;;5000898;28;20035;-68
2021/12/20 11:47:24;;;;;;;12.43;6.65;;;;;;;;;;4999405;28;20022;-68
2021/12/20 11:50:06;;;;;;;11.80;6.00;;;;;;;;;;4998453;28;20018;-68
2021/12/20 11:52:36;;;;;;;12.27;6.07;;;;;;;;;;4998958;28;20108;-68
2021/12/20 11:55:23;;;;;;;12.07;5.85;;;;;;;;;;4999580;28;20481;-68
2021/12/20 11:57:52;;;;;;;10.70;5.68;;;;;;;;;;4999889;28;20033;-68
2021/12/20 12:00:22;;;;;;;11.35;5.28;;;;;;;;;;4998163;28;20030;-68
2021/12/20 12:02:49;;;;;;;13.20;6.05;;;;;;;;;;5000285;28;20033;-68
2021/12/20 12:05:35;;;;;;;12.57;6.05;;;;;;;;;;5000028;28;20148;-68
2021/12/20 12:08:33;;;;;;;8.15;5.57;;;;;;;;;;4999080;28;20188;-68
2021/12/20 12:11:05;;;;;;;11.25;6.05;;;;;;;;;;4999411;28;20050;-68
2021/12/20 12:13:35;;;;;;;10.07;5.70;;;;;;;;;;4999452;28;20034;-68
2021/12/20 12:16:04;;;;;;;10.25;5.78;;;;;;;;;;4999792;28;20464;-68
2021/12/20 12:18:49;;;;;;;11.20;5.70;;;;;;;;;;4998788;28;20038;-68
2021/12/20 12:21:41;;;;;;;13.60;5.75;;;;;;;;;;4999331;28;20046;-68
2021/12/20 12:24:14;;;;;;;9.63;5.22;;;;;;;;;;4999538;28;20033;-68
2021/12/20 12:26:44;;;;;;;9.60;5.43;;;;;;;;;;4996812;28;20112;-68
2021/12/20 12:29:20;;;;;;;10.20;5.15;;;;;;;;;;4998301;28;20030;-68
2021/12/20 12:32:06;;;;;;;13.38;6.53;;;;;;;;;;4998070;28;20091;-68
2021/12/20 12:34:38;;;;;;;13.45;6.35;;;;;;;;;;4997204;28;20665;-68
2021/12/20 12:37:30;;;;;;;10.20;5.45;;;;;;;;;;4996526;28;20392;-68
2021/12/20 12:40:21;;;;;;;9.52;6.28;;;;;;;;;;4996342;28;20029;-68
2021/12/20 12:42:49;;;;;;;13.50;6.57;;;;;;;;;;4995907;28;20546;-68
2021/12/20 12:45:16;;;;;;;12.20;6.90;;;;;;;;;;4997221;28;20026;-68
2021/12/20 12:47:41;;;;;;;11.25;6.78;;;;;;;;;;4999058;28;20400;-68
2021/12/20 12:50:07;;;;;;;14.23;7.35;;;;;;;;;;4995444;28;20025;-68
2021/12/20 12:52:33;;;;;;;12.52;6.55;;;;;;;;;;4981335;28;20034;-68
2021/12/20 12:55:11;;;;;;;14.30;6.75;;;;;;;;;;4998367;28;21150;-68
2021/12/20 12:57:38;;;;;;;11.18;6.90;;;;;;;;;;4999009;28;20033;-68
2021/12/20 13:00:05;;;;;;;10.85;6.10;;;;;;;;;;4998211;28;20081;-68
2021/12/20 13:02:33;;;;;;;10.52;6.25;;;;;;;;;;4997717;28;20049;-68
2021/12/20 13:05:22;;;;;;;10.65;6.30;;;;;;;;;;4998509;28;20030;-68
2021/12/20 13:07:52;;;;;;;12.40;6.70;;;;;;;;;;4996530;28;20084;-68
2021/12/20 13:10:29;;;;;;;12.57;7.13;;;;;;;;;;4998581;28;20336;-68
2021/12/20 13:12:58;;;;;;;14.10;6.78;;;;;;;;;;4995772;28;20092;-68
2021/12/20 13:18:00;;;;;;;13.55;6.53;;;;;;;;;;4997199;28;20026;-68
2021/12/20 13:20:38;;;;;;;12.50;6.72;;;;;;;;;;4997477;28;20027;-68
2021/12/20 13:23:41;;;;;;;11.43;6.35;;;;;;;;;;5012336;28;20033;-68
2021/12/20 13:26:09;;;;;;;14.52;7.22;;;;;;;;;;4972481;28;20194;-68
2021/12/20 13:28:44;;;;;;;14.68;7.03;;;;;;;;;;4991314;28;20417;-68
2021/12/20 13:31:14;;;;;;;12.02;6.50;;;;;;;;;;4996458;28;20049;-68
2021/12/20 13:33:47;;;;;;;17.52;8.02;;;;;;;;;;4995609;28;20038;-68
2021/12/20 13:36:17;;;;;;;16.48;7.25;;;;;;;;;;4997218;28;20458;-68
2021/12/20 13:38:50;;;;;;;13.55;7.18;;;;;;;;;;4997132;28;20026;-68
2021/12/20 13:41:20;;;;;;;13.13;7.05;;;;;;;;;;4991043;28;20206;-68
2021/12/20 13:43:48;;;;;;;14.20;7.45;;;;;;;;;;4987003;28;20552;-68
2021/12/20 13:46:28;;;;;;;17.58;8.20;;;;;;;;;;4984938;28;20498;-68
2021/12/20 13:48:56;;;;;;;13.88;7.60;;;;;;;;;;4983323;28;20026;-68
2021/12/20 13:51:30;;;;;;;17.40;8.10;;;;;;;;;;4984944;28;20091;-68
2021/12/20 13:53:55;;;;;;;14.35;7.80;;;;;;;;;;4983231;28;20421;-68
2021/12/20 13:56:21;;;;;;;18.95;8.25;;;;;;;;;;4987697;28;20041;-68
2021/12/20 13:58:48;;;;;;;18.60;8.80;;;;;;;;;;4983396;28;20030;-68
2021/12/20 14:01:13;;;;;;;14.88;8.00;;;;;;;;;;4983806;28;20396;-68
2021/12/20 14:03:39;;;;;;;16.45;8.43;;;;;;;;;;4982905;28;20025;-68
2021/12/20 14:06:05;;;;;;;17.08;8.10;;;;;;;;;;4989423;28;20018;-68
2021/12/20 14:08:31;;;;;;;13.80;7.95;;;;;;;;;;4985808;28;20045;-68
2021/12/20 14:10:56;;;;;;;15.77;8.40;;;;;;;;;;4987000;28;20053;-68
2021/12/20 14:13:26;;;;;;;18.58;7.97;;;;;;;;;;4989736;28;20152;-68
2021/12/20 14:16:01;;;;;;;21.20;8.07;;;;;;;;;;4996573;28;20077;-68
2021/12/20 14:18:37;;;;;;;16.75;8.43;;;;;;;;;;4994503;28;20038;-68
2021/12/20 14:21:11;;;;;;;16.05;8.50;;;;;;;;;;4992022;28;20033;-68
2021/12/20 14:23:42;;;;;;;18.92;8.75;;;;;;;;;;4985082;28;20038;-68
2021/12/20 14:26:08;;;;;;;16.45;8.23;;;;;;;;;;4985120;28;20536;-68
2021/12/20 14:28:35;;;;;;;17.42;7.93;;;;;;;;;;4987925;28;20080;-68
2021/12/20 14:31:05;;;;;;;21.05;7.95;;;;;;;;;;4985517;28;20034;-68
2021/12/20 14:33:41;;;;;;;18.05;8.18;;;;;;;;;;4983487;28;20461;-68
2021/12/20 14:36:13;;;;;;;18.17;8.57;;;;;;;;;;4983210;28;20030;-68
2021/12/20 14:38:43;;;;;;;18.20;8.13;;;;;;;;;;4993046;28;20496;-68
2021/12/20 14:41:18;;;;;;;17.45;8.65;;;;;;;;;;4994757;28;20022;-68
2021/12/20 14:43:43;;;;;;;22.13;8.52;;;;;;;;;;4994301;28;20121;-68
2021/12/20 14:49:04;;;;;;;18.20;8.00;;;;;;;;;;4996778;28;20065;-68
2021/12/20 14:51:31;;;;;;;15.50;8.73;;;;;;;;;;4996408;28;20026;-68